Main page
METAR-TAF:

Airports :

Singapore, Singapore

Paya Lebar Air Base

latitude: 01-22N, longitude: 103-55E, elevation: 18 m

Current weather observation

The report was made 1 hour and 9 minutes ago, at 23:00 UTC
Wind 3 kt from the South/Southeast
Temperature 28°C
Humidity 89%
Pressure 1009 hPa
Visibility 10 km or more
Few clouds at a height of 1600 ft
Broken clouds at a height of 30000 ft

METAR: WSAP 282300Z 15003KT 9999 FEW016 BKN300 28/26 Q1009

Time: 08:09 (00:09 UTC)

Forecast

The report was made 1 hour and 9 minutes ago, at 23:00 UTC
Forecast valid from 29 at 00 UTC to 30 at 06 UTC
Wind 7 kt from the South
Visibility 10 km or more
Few clouds at a height of 1800 ft, Cumulonimbus.
Scattered clouds at a height of 2000 ft

TAF: WSAP 282300Z 2900/3006 18007KT 9999 FEW018CB SCT020

METAR-TAF

Weather observations and forecasts of more than 4000 airports (METAR and TAF reports).

The available stations are represented by yellow and red dots on the map.

Hover mouse over dot to see the name of the station.

Then click to see weather observations and forecasts.

To change the map : click on the green buttons with a black cross to zoom in, on the green button with a dash to zoom out, or on the green arrows for adjacent maps.


METAR-TAF: